Aşgabat, Türkmenistan

Saat: 09:39 PM TMT Tarih: 02 Eylül 2014 (GMT +0500)
Ashgabat | Change Station
CLOSE
Current Station
Hava Meydanı
Location: Ashgabat,
Yükseklik: 689 ft
Nearby Weather Stations

Elev 689 ft 37.98 °N, 58.37 °E | Updated 39 minutes ago

Clear
Açık
84
Feels Like 84
N
9
Rüzgar Değişken Rüzgar from DGD

Bugün
High -- | Low -- F°
--% Chance of Precip.
Dün
High -- | Low -- F°
Precip. -- inç
6:37 AM 7:35 PM
İlk Hilãl, 53% visible
Basınç 29.89 inç
Görüş Uzaklığı 6.2 mil
Bulutlar Açık
Çiğ noktası 41
Nem oranı 22%
Yağış 0.00 inç
Kar Kalınlığı Not available.
0 out of 12
Pollen Not available.
Hava Kalitesi Not available.
Flu Activity Not available.
METAR UTAA 021600Z 12004MPS 9999 SKC 29/05 Q1012 NOSIG

More Conditions Fewer Conditions

Basınç 29.89 inç
Görüş Uzaklığı 6.2 mil
Bulutlar Açık
Çiğ noktası 41
Nem oranı 22%
Yağış 0.00 inç
Kar Kalınlığı Not available.
0 out of 12
Pollen Not available.
Hava Kalitesi Not available.
Flu Activity Not available.
METAR UTAA 021600Z 12004MPS 9999 SKC 29/05 Q1012 NOSIG

More Conditions Fewer Conditions

10-Day Weather Forecast

Almanac

Gökbilim

Sep. 02, 2014 Rise Set
Gerçek Zaman 06:37 TMT 19:35 TMT
Günlük Tan 06:10 TMT 20:02 TMT
Deniz Tanı 05:38 TMT 20:33 TMT
Geceyarısı Yıldız Zamanı 05:05 TMT 21:06 TMT
Ay 13:50 TMT Ay Batışı Yok
Görünür Işığın Uzunluğu 13h 51m
Günün Uzunluğu
12h 58m
Tomorrow will be 2m 21s shorter.
İlk Hilãl, 53% of the Moon is Illuminated
Bugün
İlk Hilãl
Sep 8
Dolunay
Sep 15
Son Hilãl
Sep 24
New
Oct 1
İlk Hilãl

Günün En Yüksekleri

Country Highs Country Lows

Community

WunderPhotos

Upload Photos

1,749,715 photos uploaded!

Nearby

Kar Kalınlığı

Not available.

Earthquake Activity

Şehir Distance Mag. Time & Date
No recent earthquake activity has been reported nearby.
Minimum magnitude displayed is 2.5.

Coastal Water Temperatures

Yer Sıcaklık
No Stations Reporting

Nearby Weather Stations